sensor_id;sensor_type;location;lat;lon;timestamp;P1;durP1;ratioP1;P2;durP2;ratioP2
12762;SDS011;6445;52.490;13.378;2022-11-14T00:02:06;78.80;;;42.08;;
12762;SDS011;6445;52.490;13.378;2022-11-14T00:04:32;81.53;;;40.55;;
12762;SDS011;6445;52.490;13.378;2022-11-14T00:06:57;78.45;;;40.60;;
12762;SDS011;6445;52.490;13.378;2022-11-14T00:09:28;82.32;;;41.60;;
12762;SDS011;6445;52.490;13.378;2022-11-14T00:11:54;76.70;;;41.10;;
12762;SDS011;6445;52.490;13.378;2022-11-14T00:14:19;83.82;;;41.75;;
12762;SDS011;6445;52.490;13.378;2022-11-14T00:16:45;73.78;;;40.83;;
12762;SDS011;6445;52.490;13.378;2022-11-14T00:19:11;77.82;;;41.00;;
12762;SDS011;6445;52.490;13.378;2022-11-14T00:21:36;81.50;;;41.55;;
12762;SDS011;6445;52.490;13.378;2022-11-14T00:24:01;77.68;;;41.63;;
12762;SDS011;6445;52.490;13.378;2022-11-14T00:26:27;76.38;;;41.33;;
12762;SDS011;6445;52.490;13.378;2022-11-14T00:28:53;81.72;;;42.80;;
12762;SDS011;6445;52.490;13.378;2022-11-14T00:31:18;86.03;;;43.70;;
12762;SDS011;6445;52.490;13.378;2022-11-14T00:33:43;80.70;;;41.40;;
12762;SDS011;6445;52.490;13.378;2022-11-14T00:36:09;80.53;;;40.83;;
12762;SDS011;6445;52.490;13.378;2022-11-14T00:38:34;87.25;;;42.00;;
12762;SDS011;6445;52.490;13.378;2022-11-14T00:40:59;81.95;;;42.70;;
12762;SDS011;6445;52.490;13.378;2022-11-14T00:43:24;83.00;;;42.60;;
12762;SDS011;6445;52.490;13.378;2022-11-14T00:45:50;86.25;;;43.40;;
12762;SDS011;6445;52.490;13.378;2022-11-14T00:48:15;84.15;;;42.00;;
12762;SDS011;6445;52.490;13.378;2022-11-14T00:50:41;81.57;;;42.10;;
12762;SDS011;6445;52.490;13.378;2022-11-14T00:53:06;83.32;;;42.13;;
12762;SDS011;6445;52.490;13.378;2022-11-14T00:55:32;85.40;;;42.53;;
12762;SDS011;6445;52.490;13.378;2022-11-14T00:57:57;86.32;;;43.15;;
12762;SDS011;6445;52.490;13.378;2022-11-14T01:00:22;86.70;;;41.58;;
12762;SDS011;6445;52.490;13.378;2022-11-14T01:02:48;90.90;;;43.50;;
12762;SDS011;6445;52.490;13.378;2022-11-14T01:05:13;86.03;;;43.03;;
12762;SDS011;6445;52.490;13.378;2022-11-14T01:07:38;83.93;;;41.00;;
12762;SDS011;6445;52.490;13.378;2022-11-14T01:10:04;81.93;;;42.58;;
12762;SDS011;6445;52.490;13.378;2022-11-14T01:12:30;88.95;;;42.47;;
12762;SDS011;6445;52.490;13.378;2022-11-14T01:14:55;89.18;;;43.00;;
12762;SDS011;6445;52.490;13.378;2022-11-14T01:17:20;86.30;;;42.67;;
12762;SDS011;6445;52.490;13.378;2022-11-14T01:19:45;94.30;;;45.50;;
12762;SDS011;6445;52.490;13.378;2022-11-14T01:22:10;95.20;;;44.47;;
12762;SDS011;6445;52.490;13.378;2022-11-14T01:24:36;89.18;;;44.45;;
12762;SDS011;6445;52.490;13.378;2022-11-14T01:27:01;93.70;;;43.47;;
12762;SDS011;6445;52.490;13.378;2022-11-14T01:29:27;99.03;;;44.83;;
12762;SDS011;6445;52.490;13.378;2022-11-14T01:31:52;95.00;;;45.67;;
12762;SDS011;6445;52.490;13.378;2022-11-14T01:34:17;95.95;;;44.70;;
12762;SDS011;6445;52.490;13.378;2022-11-14T01:36:42;100.60;;;45.20;;
12762;SDS011;6445;52.490;13.378;2022-11-14T01:39:08;96.85;;;46.20;;
12762;SDS011;6445;52.490;13.378;2022-11-14T01:41:33;102.07;;;45.28;;
12762;SDS011;6445;52.490;13.378;2022-11-14T01:43:58;99.97;;;45.13;;
12762;SDS011;6445;52.490;13.378;2022-11-14T01:46:25;100.75;;;45.75;;
12762;SDS011;6445;52.490;13.378;2022-11-14T01:49:14;103.72;;;46.60;;
12762;SDS011;6445;52.490;13.378;2022-11-14T01:51:48;96.63;;;45.83;;
12762;SDS011;6445;52.490;13.378;2022-11-14T01:54:21;106.38;;;47.40;;
12762;SDS011;6445;52.490;13.378;2022-11-14T01:56:51;110.88;;;47.42;;
12762;SDS011;6445;52.490;13.378;2022-11-14T01:59:21;102.05;;;46.15;;
12762;SDS011;6445;52.490;13.378;2022-11-14T02:01:50;110.25;;;48.63;;
12762;SDS011;6445;52.490;13.378;2022-11-14T02:04:21;111.88;;;49.33;;
12762;SDS011;6445;52.490;13.378;2022-11-14T02:06:50;106.10;;;47.60;;
12762;SDS011;6445;52.490;13.378;2022-11-14T02:09:21;109.88;;;48.55;;
12762;SDS011;6445;52.490;13.378;2022-11-14T02:11:46;116.55;;;47.63;;
12762;SDS011;6445;52.490;13.378;2022-11-14T02:14:12;115.45;;;49.75;;
12762;SDS011;6445;52.490;13.378;2022-11-14T02:16:38;103.47;;;46.75;;
12762;SDS011;6445;52.490;13.378;2022-11-14T02:19:05;104.88;;;47.42;;
12762;SDS011;6445;52.490;13.378;2022-11-14T02:21:31;107.05;;;47.80;;
12762;SDS011;6445;52.490;13.378;2022-11-14T02:23:56;108.82;;;46.13;;
12762;SDS011;6445;52.490;13.378;2022-11-14T02:26:22;114.78;;;48.08;;
12762;SDS011;6445;52.490;13.378;2022-11-14T02:28:47;99.72;;;44.75;;
12762;SDS011;6445;52.490;13.378;2022-11-14T02:31:13;109.30;;;46.50;;
12762;SDS011;6445;52.490;13.378;2022-11-14T02:33:39;96.57;;;44.88;;
12762;SDS011;6445;52.490;13.378;2022-11-14T02:36:05;102.70;;;44.90;;
12762;SDS011;6445;52.490;13.378;2022-11-14T02:38:30;103.82;;;44.53;;
12762;SDS011;6445;52.490;13.378;2022-11-14T02:40:55;98.22;;;44.08;;
12762;SDS011;6445;52.490;13.378;2022-11-14T02:43:23;102.68;;;45.38;;
12762;SDS011;6445;52.490;13.378;2022-11-14T02:45:48;104.65;;;47.63;;
12762;SDS011;6445;52.490;13.378;2022-11-14T02:48:14;107.32;;;45.58;;
12762;SDS011;6445;52.490;13.378;2022-11-14T02:50:39;108.15;;;45.33;;
12762;SDS011;6445;52.490;13.378;2022-11-14T02:53:04;104.68;;;44.33;;
12762;SDS011;6445;52.490;13.378;2022-11-14T02:55:29;106.13;;;45.17;;
12762;SDS011;6445;52.490;13.378;2022-11-14T02:57:55;94.63;;;42.17;;
12762;SDS011;6445;52.490;13.378;2022-11-14T03:00:20;91.45;;;43.17;;
12762;SDS011;6445;52.490;13.378;2022-11-14T03:02:45;96.05;;;44.50;;
12762;SDS011;6445;52.490;13.378;2022-11-14T03:05:11;104.07;;;44.90;;
12762;SDS011;6445;52.490;13.378;2022-11-14T03:07:36;95.53;;;42.33;;
12762;SDS011;6445;52.490;13.378;2022-11-14T03:10:02;96.35;;;42.45;;
12762;SDS011;6445;52.490;13.378;2022-11-14T03:12:27;99.53;;;41.92;;
12762;SDS011;6445;52.490;13.378;2022-11-14T03:14:53;96.85;;;44.20;;
12762;SDS011;6445;52.490;13.378;2022-11-14T03:17:18;104.90;;;43.92;;
12762;SDS011;6445;52.490;13.378;2022-11-14T03:19:43;93.00;;;42.15;;
12762;SDS011;6445;52.490;13.378;2022-11-14T03:22:08;97.55;;;44.35;;
12762;SDS011;6445;52.490;13.378;2022-11-14T03:24:33;101.20;;;43.10;;
12762;SDS011;6445;52.490;13.378;2022-11-14T03:26:59;95.55;;;42.13;;
12762;SDS011;6445;52.490;13.378;2022-11-14T03:29:24;92.90;;;42.50;;
12762;SDS011;6445;52.490;13.378;2022-11-14T03:31:49;97.78;;;42.00;;
12762;SDS011;6445;52.490;13.378;2022-11-14T03:34:14;99.43;;;42.40;;
12762;SDS011;6445;52.490;13.378;2022-11-14T03:36:40;96.78;;;42.30;;
12762;SDS011;6445;52.490;13.378;2022-11-14T03:39:05;91.38;;;42.80;;
12762;SDS011;6445;52.490;13.378;2022-11-14T03:41:31;93.05;;;41.72;;
12762;SDS011;6445;52.490;13.378;2022-11-14T03:43:56;100.10;;;42.42;;
12762;SDS011;6445;52.490;13.378;2022-11-14T03:46:21;93.85;;;42.15;;
12762;SDS011;6445;52.490;13.378;2022-11-14T03:48:47;99.15;;;42.90;;
12762;SDS011;6445;52.490;13.378;2022-11-14T03:51:12;107.00;;;43.95;;
12762;SDS011;6445;52.490;13.378;2022-11-14T03:53:37;95.72;;;41.58;;
12762;SDS011;6445;52.490;13.378;2022-11-14T03:56:02;97.85;;;42.72;;
12762;SDS011;6445;52.490;13.378;2022-11-14T03:58:28;91.00;;;42.28;;
12762;SDS011;6445;52.490;13.378;2022-11-14T04:00:53;102.40;;;42.70;;
12762;SDS011;6445;52.490;13.378;2022-11-14T04:03:20;97.30;;;42.40;;
12762;SDS011;6445;52.490;13.378;2022-11-14T04:05:46;97.40;;;41.90;;
12762;SDS011;6445;52.490;13.378;2022-11-14T04:08:11;99.57;;;44.50;;
12762;SDS011;6445;52.490;13.378;2022-11-14T04:10:36;100.88;;;42.83;;
12762;SDS011;6445;52.490;13.378;2022-11-14T04:13:02;98.95;;;41.67;;
12762;SDS011;6445;52.490;13.378;2022-11-14T04:15:28;100.88;;;42.33;;
12762;SDS011;6445;52.490;13.378;2022-11-14T04:17:53;100.15;;;43.00;;
12762;SDS011;6445;52.490;13.378;2022-11-14T04:20:19;95.63;;;43.53;;
12762;SDS011;6445;52.490;13.378;2022-11-14T04:22:44;101.28;;;43.13;;
12762;SDS011;6445;52.490;13.378;2022-11-14T04:25:10;102.72;;;42.67;;
12762;SDS011;6445;52.490;13.378;2022-11-14T04:27:35;97.90;;;42.90;;
12762;SDS011;6445;52.490;13.378;2022-11-14T04:30:00;104.28;;;44.22;;
12762;SDS011;6445;52.490;13.378;2022-11-14T04:32:26;106.10;;;43.08;;
12762;SDS011;6445;52.490;13.378;2022-11-14T04:34:51;97.72;;;43.90;;
12762;SDS011;6445;52.490;13.378;2022-11-14T04:37:16;98.00;;;42.00;;
12762;SDS011;6445;52.490;13.378;2022-11-14T04:39:42;102.93;;;43.00;;
12762;SDS011;6445;52.490;13.378;2022-11-14T04:42:07;112.40;;;51.05;;
12762;SDS011;6445;52.490;13.378;2022-11-14T04:44:32;110.80;;;44.45;;
12762;SDS011;6445;52.490;13.378;2022-11-14T04:46:57;98.75;;;43.40;;
12762;SDS011;6445;52.490;13.378;2022-11-14T04:49:23;110.00;;;43.28;;
12762;SDS011;6445;52.490;13.378;2022-11-14T04:51:48;104.93;;;43.42;;
12762;SDS011;6445;52.490;13.378;2022-11-14T04:54:14;102.97;;;42.58;;
12762;SDS011;6445;52.490;13.378;2022-11-14T04:56:39;108.93;;;43.88;;
12762;SDS011;6445;52.490;13.378;2022-11-14T04:59:04;103.90;;;43.97;;
12762;SDS011;6445;52.490;13.378;2022-11-14T05:01:29;105.30;;;43.80;;
12762;SDS011;6445;52.490;13.378;2022-11-14T05:03:55;110.75;;;45.33;;
12762;SDS011;6445;52.490;13.378;2022-11-14T05:06:20;105.93;;;43.30;;
12762;SDS011;6445;52.490;13.378;2022-11-14T05:08:45;106.47;;;45.08;;
12762;SDS011;6445;52.490;13.378;2022-11-14T05:11:13;116.32;;;45.75;;
12762;SDS011;6445;52.490;13.378;2022-11-14T05:13:42;104.22;;;43.75;;
12762;SDS011;6445;52.490;13.378;2022-11-14T05:16:07;113.10;;;47.03;;
12762;SDS011;6445;52.490;13.378;2022-11-14T05:18:33;183.13;;;82.15;;
12762;SDS011;6445;52.490;13.378;2022-11-14T05:20:58;119.18;;;44.95;;
12762;SDS011;6445;52.490;13.378;2022-11-14T05:23:25;119.53;;;47.53;;
12762;SDS011;6445;52.490;13.378;2022-11-14T05:25:57;112.20;;;45.42;;
12762;SDS011;6445;52.490;13.378;2022-11-14T05:28:26;112.97;;;43.92;;
12762;SDS011;6445;52.490;13.378;2022-11-14T05:30:51;128.00;;;56.30;;
12762;SDS011;6445;52.490;13.378;2022-11-14T05:33:17;161.70;;;76.43;;
12762;SDS011;6445;52.490;13.378;2022-11-14T05:35:42;108.53;;;44.55;;
12762;SDS011;6445;52.490;13.378;2022-11-14T05:38:07;102.28;;;44.42;;
12762;SDS011;6445;52.490;13.378;2022-11-14T05:40:32;112.03;;;46.17;;
12762;SDS011;6445;52.490;13.378;2022-11-14T05:42:57;116.30;;;45.10;;
12762;SDS011;6445;52.490;13.378;2022-11-14T05:45:23;108.18;;;44.88;;
12762;SDS011;6445;52.490;13.378;2022-11-14T05:47:48;111.13;;;44.03;;
12762;SDS011;6445;52.490;13.378;2022-11-14T05:50:13;113.10;;;45.80;;
12762;SDS011;6445;52.490;13.378;2022-11-14T05:52:40;106.72;;;44.28;;
12762;SDS011;6445;52.490;13.378;2022-11-14T05:55:05;111.97;;;44.30;;
12762;SDS011;6445;52.490;13.378;2022-11-14T05:57:31;112.55;;;45.50;;
12762;SDS011;6445;52.490;13.378;2022-11-14T05:59:56;108.75;;;45.00;;
12762;SDS011;6445;52.490;13.378;2022-11-14T06:02:21;108.18;;;45.80;;
12762;SDS011;6445;52.490;13.378;2022-11-14T06:04:47;122.10;;;53.90;;
12762;SDS011;6445;52.490;13.378;2022-11-14T06:07:12;110.43;;;44.53;;
12762;SDS011;6445;52.490;13.378;2022-11-14T06:09:37;108.85;;;44.35;;
12762;SDS011;6445;52.490;13.378;2022-11-14T06:12:03;108.38;;;44.60;;
12762;SDS011;6445;52.490;13.378;2022-11-14T06:14:31;104.00;;;43.42;;
12762;SDS011;6445;52.490;13.378;2022-11-14T06:16:56;112.60;;;43.28;;
12762;SDS011;6445;52.490;13.378;2022-11-14T06:19:22;107.20;;;43.38;;
12762;SDS011;6445;52.490;13.378;2022-11-14T06:21:47;114.65;;;49.58;;
12762;SDS011;6445;52.490;13.378;2022-11-14T06:24:12;103.00;;;43.13;;
12762;SDS011;6445;52.490;13.378;2022-11-14T06:26:37;101.63;;;43.95;;
12762;SDS011;6445;52.490;13.378;2022-11-14T06:29:03;107.65;;;42.83;;
12762;SDS011;6445;52.490;13.378;2022-11-14T06:31:28;103.75;;;43.55;;
12762;SDS011;6445;52.490;13.378;2022-11-14T06:33:53;114.22;;;43.42;;
12762;SDS011;6445;52.490;13.378;2022-11-14T06:36:19;101.05;;;44.72;;
12762;SDS011;6445;52.490;13.378;2022-11-14T06:38:44;109.93;;;44.28;;
12762;SDS011;6445;52.490;13.378;2022-11-14T06:41:11;109.70;;;44.80;;
12762;SDS011;6445;52.490;13.378;2022-11-14T06:43:38;115.60;;;45.33;;
12762;SDS011;6445;52.490;13.378;2022-11-14T06:46:05;106.80;;;43.42;;
12762;SDS011;6445;52.490;13.378;2022-11-14T06:48:31;111.63;;;44.75;;
12762;SDS011;6445;52.490;13.378;2022-11-14T06:50:57;113.53;;;43.65;;
12762;SDS011;6445;52.490;13.378;2022-11-14T06:53:24;111.80;;;42.95;;
12762;SDS011;6445;52.490;13.378;2022-11-14T06:56:03;116.05;;;45.70;;
12762;SDS011;6445;52.490;13.378;2022-11-14T06:58:31;107.80;;;43.50;;
12762;SDS011;6445;52.490;13.378;2022-11-14T07:01:02;115.97;;;44.53;;
12762;SDS011;6445;52.490;13.378;2022-11-14T07:03:29;111.85;;;44.45;;
12762;SDS011;6445;52.490;13.378;2022-11-14T07:05:56;105.63;;;42.83;;
12762;SDS011;6445;52.490;13.378;2022-11-14T07:08:22;112.32;;;43.30;;
12762;SDS011;6445;52.490;13.378;2022-11-14T07:10:47;115.07;;;44.08;;
12762;SDS011;6445;52.490;13.378;2022-11-14T07:13:12;107.68;;;44.03;;
12762;SDS011;6445;52.490;13.378;2022-11-14T07:15:38;109.97;;;43.15;;
12762;SDS011;6445;52.490;13.378;2022-11-14T07:18:03;113.70;;;42.92;;
12762;SDS011;6445;52.490;13.378;2022-11-14T07:20:28;101.53;;;42.63;;
12762;SDS011;6445;52.490;13.378;2022-11-14T07:22:54;100.03;;;41.35;;
12762;SDS011;6445;52.490;13.378;2022-11-14T07:25:19;102.38;;;42.28;;
12762;SDS011;6445;52.490;13.378;2022-11-14T07:27:46;103.47;;;42.00;;
12762;SDS011;6445;52.490;13.378;2022-11-14T07:30:12;102.45;;;41.42;;
12762;SDS011;6445;52.490;13.378;2022-11-14T07:32:37;102.65;;;41.90;;
12762;SDS011;6445;52.490;13.378;2022-11-14T07:35:02;103.65;;;41.17;;
12762;SDS011;6445;52.490;13.378;2022-11-14T07:37:28;102.93;;;42.22;;
12762;SDS011;6445;52.490;13.378;2022-11-14T07:39:53;99.55;;;41.00;;
12762;SDS011;6445;52.490;13.378;2022-11-14T07:42:18;100.38;;;40.88;;
12762;SDS011;6445;52.490;13.378;2022-11-14T07:44:44;92.47;;;39.33;;
12762;SDS011;6445;52.490;13.378;2022-11-14T07:47:09;85.07;;;38.17;;
12762;SDS011;6445;52.490;13.378;2022-11-14T07:49:34;85.45;;;36.83;;
12762;SDS011;6445;52.490;13.378;2022-11-14T07:52:00;85.88;;;36.92;;
12762;SDS011;6445;52.490;13.378;2022-11-14T07:54:25;87.00;;;39.85;;
12762;SDS011;6445;52.490;13.378;2022-11-14T07:56:50;81.88;;;37.63;;
12762;SDS011;6445;52.490;13.378;2022-11-14T07:59:15;85.47;;;37.95;;
12762;SDS011;6445;52.490;13.378;2022-11-14T08:01:40;84.10;;;36.50;;
12762;SDS011;6445;52.490;13.378;2022-11-14T08:04:06;81.47;;;37.25;;
12762;SDS011;6445;52.490;13.378;2022-11-14T08:06:31;83.25;;;37.13;;
12762;SDS011;6445;52.490;13.378;2022-11-14T08:08:56;84.75;;;37.97;;
12762;SDS011;6445;52.490;13.378;2022-11-14T08:11:21;72.93;;;35.13;;
12762;SDS011;6445;52.490;13.378;2022-11-14T08:14:05;75.15;;;34.95;;
12762;SDS011;6445;52.490;13.378;2022-11-14T08:16:31;80.15;;;35.70;;
12762;SDS011;6445;52.490;13.378;2022-11-14T08:18:56;80.00;;;36.33;;
12762;SDS011;6445;52.490;13.378;2022-11-14T08:21:21;80.43;;;35.10;;
12762;SDS011;6445;52.490;13.378;2022-11-14T08:23:46;75.80;;;35.80;;
12762;SDS011;6445;52.490;13.378;2022-11-14T08:26:12;73.07;;;35.15;;
12762;SDS011;6445;52.490;13.378;2022-11-14T08:28:37;73.72;;;34.13;;
12762;SDS011;6445;52.490;13.378;2022-11-14T08:31:03;71.10;;;33.22;;
12762;SDS011;6445;52.490;13.378;2022-11-14T08:33:28;75.13;;;34.20;;
12762;SDS011;6445;52.490;13.378;2022-11-14T08:35:54;77.38;;;35.55;;
12762;SDS011;6445;52.490;13.378;2022-11-14T08:38:19;77.65;;;33.13;;
12762;SDS011;6445;52.490;13.378;2022-11-14T08:40:44;79.43;;;35.53;;
12762;SDS011;6445;52.490;13.378;2022-11-14T08:43:10;77.53;;;34.90;;
12762;SDS011;6445;52.490;13.378;2022-11-14T08:45:35;78.88;;;34.42;;
12762;SDS011;6445;52.490;13.378;2022-11-14T08:48:00;74.78;;;35.35;;
12762;SDS011;6445;52.490;13.378;2022-11-14T08:50:26;73.95;;;34.17;;
12762;SDS011;6445;52.490;13.378;2022-11-14T08:52:51;75.47;;;34.33;;
12762;SDS011;6445;52.490;13.378;2022-11-14T08:55:17;69.18;;;33.78;;
12762;SDS011;6445;52.490;13.378;2022-11-14T08:57:43;93.05;;;47.00;;
12762;SDS011;6445;52.490;13.378;2022-11-14T09:00:08;71.78;;;34.53;;
12762;SDS011;6445;52.490;13.378;2022-11-14T09:02:34;77.78;;;34.25;;
12762;SDS011;6445;52.490;13.378;2022-11-14T09:04:59;67.38;;;31.92;;
12762;SDS011;6445;52.490;13.378;2022-11-14T09:07:25;69.40;;;31.75;;
12762;SDS011;6445;52.490;13.378;2022-11-14T09:09:50;66.50;;;31.45;;
12762;SDS011;6445;52.490;13.378;2022-11-14T09:12:15;67.97;;;31.83;;
12762;SDS011;6445;52.490;13.378;2022-11-14T09:14:42;64.20;;;31.17;;
12762;SDS011;6445;52.490;13.378;2022-11-14T09:17:07;59.85;;;29.92;;
12762;SDS011;6445;52.490;13.378;2022-11-14T09:19:32;56.30;;;28.42;;
12762;SDS011;6445;52.490;13.378;2022-11-14T09:21:58;58.28;;;29.63;;
12762;SDS011;6445;52.490;13.378;2022-11-14T09:24:23;61.45;;;29.92;;
12762;SDS011;6445;52.490;13.378;2022-11-14T09:26:49;68.55;;;34.63;;
12762;SDS011;6445;52.490;13.378;2022-11-14T09:29:15;110.13;;;59.15;;
12762;SDS011;6445;52.490;13.378;2022-11-14T09:31:42;54.38;;;27.65;;
12762;SDS011;6445;52.490;13.378;2022-11-14T09:34:08;57.03;;;28.92;;
12762;SDS011;6445;52.490;13.378;2022-11-14T09:36:33;60.85;;;29.83;;
12762;SDS011;6445;52.490;13.378;2022-11-14T09:38:58;59.03;;;30.13;;
12762;SDS011;6445;52.490;13.378;2022-11-14T09:41:24;50.42;;;27.90;;
12762;SDS011;6445;52.490;13.378;2022-11-14T09:46:31;52.05;;;27.58;;
12762;SDS011;6445;52.490;13.378;2022-11-14T09:49:07;50.42;;;28.00;;
12762;SDS011;6445;52.490;13.378;2022-11-14T09:51:45;109.78;;;64.90;;
12762;SDS011;6445;52.490;13.378;2022-11-14T09:54:21;46.13;;;27.23;;
12762;SDS011;6445;52.490;13.378;2022-11-14T09:56:48;48.35;;;28.23;;
12762;SDS011;6445;52.490;13.378;2022-11-14T09:59:14;45.65;;;26.10;;
12762;SDS011;6445;52.490;13.378;2022-11-14T10:04:23;46.75;;;25.85;;
12762;SDS011;6445;52.490;13.378;2022-11-14T10:07:20;52.58;;;28.05;;
12762;SDS011;6445;52.490;13.378;2022-11-14T10:10:20;49.08;;;26.77;;
12762;SDS011;6445;52.490;13.378;2022-11-14T10:13:16;49.28;;;26.33;;
12762;SDS011;6445;52.490;13.378;2022-11-14T10:16:06;46.13;;;26.27;;
12762;SDS011;6445;52.490;13.378;2022-11-14T10:18:57;45.28;;;26.50;;
12762;SDS011;6445;52.490;13.378;2022-11-14T10:21:45;47.33;;;25.83;;
12762;SDS011;6445;52.490;13.378;2022-11-14T10:27:17;43.53;;;25.15;;
12762;SDS011;6445;52.490;13.378;2022-11-14T10:32:31;46.38;;;26.77;;
12762;SDS011;6445;52.490;13.378;2022-11-14T10:35:18;42.47;;;24.88;;
12762;SDS011;6445;52.490;13.378;2022-11-14T10:40:59;46.80;;;26.25;;
12762;SDS011;6445;52.490;13.378;2022-11-14T10:46:12;43.22;;;26.52;;
12762;SDS011;6445;52.490;13.378;2022-11-14T10:48:44;55.30;;;26.92;;
12762;SDS011;6445;52.490;13.378;2022-11-14T10:57:00;69.13;;;40.45;;
12762;SDS011;6445;52.490;13.378;2022-11-14T10:59:25;44.88;;;26.65;;
12762;SDS011;6445;52.490;13.378;2022-11-14T11:01:56;44.80;;;25.70;;
12762;SDS011;6445;52.490;13.378;2022-11-14T11:04:35;40.20;;;24.15;;
12762;SDS011;6445;52.490;13.378;2022-11-14T11:09:41;38.22;;;23.48;;
12762;SDS011;6445;52.490;13.378;2022-11-14T11:12:47;41.63;;;23.48;;
12762;SDS011;6445;52.490;13.378;2022-11-14T11:15:13;39.22;;;23.92;;
12762;SDS011;6445;52.490;13.378;2022-11-14T11:17:57;42.13;;;24.80;;
12762;SDS011;6445;52.490;13.378;2022-11-14T11:20:28;38.88;;;23.27;;
12762;SDS011;6445;52.490;13.378;2022-11-14T11:23:00;38.25;;;22.40;;
12762;SDS011;6445;52.490;13.378;2022-11-14T11:25:28;40.05;;;23.58;;
12762;SDS011;6445;52.490;13.378;2022-11-14T11:28:12;39.13;;;22.83;;
12762;SDS011;6445;52.490;13.378;2022-11-14T11:30:39;38.10;;;22.55;;
12762;SDS011;6445;52.490;13.378;2022-11-14T11:33:36;35.63;;;22.90;;
12762;SDS011;6445;52.490;13.378;2022-11-14T11:36:11;40.15;;;23.00;;
12762;SDS011;6445;52.490;13.378;2022-11-14T11:38:40;37.38;;;22.83;;
12762;SDS011;6445;52.490;13.378;2022-11-14T11:41:11;35.83;;;22.35;;
12762;SDS011;6445;52.490;13.378;2022-11-14T11:43:47;37.72;;;23.17;;
12762;SDS011;6445;52.490;13.378;2022-11-14T11:46:23;38.83;;;23.75;;
12762;SDS011;6445;52.490;13.378;2022-11-14T11:48:56;34.55;;;22.15;;
12762;SDS011;6445;52.490;13.378;2022-11-14T11:51:26;47.83;;;28.77;;
12762;SDS011;6445;52.490;13.378;2022-11-14T11:53:57;36.83;;;23.20;;
12762;SDS011;6445;52.490;13.378;2022-11-14T11:56:31;34.60;;;22.25;;
12762;SDS011;6445;52.490;13.378;2022-11-14T11:59:13;34.90;;;21.92;;
12762;SDS011;6445;52.490;13.378;2022-11-14T12:01:57;33.70;;;20.98;;
12762;SDS011;6445;52.490;13.378;2022-11-14T12:04:25;43.03;;;25.42;;
12762;SDS011;6445;52.490;13.378;2022-11-14T12:06:59;36.38;;;21.95;;
12762;SDS011;6445;52.490;13.378;2022-11-14T12:09:35;34.92;;;20.95;;
12762;SDS011;6445;52.490;13.378;2022-11-14T12:12:05;37.90;;;22.77;;
12762;SDS011;6445;52.490;13.378;2022-11-14T12:23:12;35.97;;;21.75;;
12762;SDS011;6445;52.490;13.378;2022-11-14T12:26:41;35.05;;;21.77;;
12762;SDS011;6445;52.490;13.378;2022-11-14T12:28:57;31.85;;;20.58;;
12762;SDS011;6445;52.490;13.378;2022-11-14T12:31:53;33.97;;;20.00;;
12762;SDS011;6445;52.490;13.378;2022-11-14T12:37:10;32.88;;;20.30;;
12762;SDS011;6445;52.490;13.378;2022-11-14T12:39:41;30.75;;;20.00;;
12762;SDS011;6445;52.490;13.378;2022-11-14T12:42:09;32.53;;;20.15;;
12762;SDS011;6445;52.490;13.378;2022-11-14T12:44:39;31.83;;;19.85;;
12762;SDS011;6445;52.490;13.378;2022-11-14T13:00:29;28.75;;;19.75;;
12762;SDS011;6445;52.490;13.378;2022-11-14T13:14:15;26.45;;;17.75;;
12762;SDS011;6445;52.490;13.378;2022-11-14T13:19:56;33.63;;;18.73;;
12762;SDS011;6445;52.490;13.378;2022-11-14T13:22:41;26.73;;;18.38;;
12762;SDS011;6445;52.490;13.378;2022-11-14T13:27:33;24.30;;;17.95;;
12762;SDS011;6445;52.490;13.378;2022-11-14T13:30:00;26.52;;;17.73;;
12762;SDS011;6445;52.490;13.378;2022-11-14T13:35:04;25.70;;;18.38;;
12762;SDS011;6445;52.490;13.378;2022-11-14T13:40:38;27.33;;;17.65;;
12762;SDS011;6445;52.490;13.378;2022-11-14T13:43:15;30.50;;;19.52;;
12762;SDS011;6445;52.490;13.378;2022-11-14T13:45:56;27.60;;;18.60;;
12762;SDS011;6445;52.490;13.378;2022-11-14T13:48:35;27.35;;;18.23;;
12762;SDS011;6445;52.490;13.378;2022-11-14T13:51:05;27.55;;;18.30;;
12762;SDS011;6445;52.490;13.378;2022-11-14T13:53:33;27.10;;;18.50;;
12762;SDS011;6445;52.490;13.378;2022-11-14T14:01:36;30.00;;;18.50;;
12762;SDS011;6445;52.490;13.378;2022-11-14T14:04:16;28.50;;;18.75;;
12762;SDS011;6445;52.490;13.378;2022-11-14T14:07:06;26.90;;;17.75;;
12762;SDS011;6445;52.490;13.378;2022-11-14T14:09:53;26.13;;;17.52;;
12762;SDS011;6445;52.490;13.378;2022-11-14T14:12:54;28.23;;;18.95;;
12762;SDS011;6445;52.490;13.378;2022-11-14T14:15:36;26.63;;;18.55;;
12762;SDS011;6445;52.490;13.378;2022-11-14T14:21:13;29.45;;;19.27;;
12762;SDS011;6445;52.490;13.378;2022-11-14T14:32:22;28.75;;;19.38;;
12762;SDS011;6445;52.490;13.378;2022-11-14T14:34:48;27.05;;;18.48;;
12762;SDS011;6445;52.490;13.378;2022-11-14T14:37:15;29.58;;;20.27;;
12762;SDS011;6445;52.490;13.378;2022-11-14T14:39:58;33.00;;;20.48;;
12762;SDS011;6445;52.490;13.378;2022-11-14T14:42:38;28.48;;;19.85;;
12762;SDS011;6445;52.490;13.378;2022-11-14T14:45:13;30.60;;;19.95;;
12762;SDS011;6445;52.490;13.378;2022-11-14T14:47:41;28.50;;;19.85;;
12762;SDS011;6445;52.490;13.378;2022-11-14T14:50:21;27.42;;;19.13;;
12762;SDS011;6445;52.490;13.378;2022-11-14T14:52:55;29.63;;;19.73;;
12762;SDS011;6445;52.490;13.378;2022-11-14T14:55:24;29.38;;;20.17;;
12762;SDS011;6445;52.490;13.378;2022-11-14T14:57:53;32.38;;;20.95;;
12762;SDS011;6445;52.490;13.378;2022-11-14T15:00:20;30.00;;;19.23;;
12762;SDS011;6445;52.490;13.378;2022-11-14T15:02:50;30.52;;;20.33;;
12762;SDS011;6445;52.490;13.378;2022-11-14T15:05:21;31.38;;;20.85;;
12762;SDS011;6445;52.490;13.378;2022-11-14T15:07:47;28.63;;;20.80;;
12762;SDS011;6445;52.490;13.378;2022-11-14T15:10:19;30.70;;;19.52;;
12762;SDS011;6445;52.490;13.378;2022-11-14T15:12:47;33.90;;;22.50;;
12762;SDS011;6445;52.490;13.378;2022-11-14T15:15:14;34.08;;;21.70;;
12762;SDS011;6445;52.490;13.378;2022-11-14T15:17:40;31.02;;;21.13;;
12762;SDS011;6445;52.490;13.378;2022-11-14T15:20:19;33.33;;;21.75;;
12762;SDS011;6445;52.490;13.378;2022-11-14T15:23:02;30.17;;;19.70;;
12762;SDS011;6445;52.490;13.378;2022-11-14T15:25:34;31.63;;;20.42;;
12762;SDS011;6445;52.490;13.378;2022-11-14T15:27:59;29.67;;;20.52;;
12762;SDS011;6445;52.490;13.378;2022-11-14T15:30:27;33.47;;;21.58;;
12762;SDS011;6445;52.490;13.378;2022-11-14T15:32:58;33.63;;;22.02;;
12762;SDS011;6445;52.490;13.378;2022-11-14T15:35:31;34.00;;;21.98;;
12762;SDS011;6445;52.490;13.378;2022-11-14T15:38:02;38.28;;;24.02;;
12762;SDS011;6445;52.490;13.378;2022-11-14T15:40:30;33.42;;;21.90;;
12762;SDS011;6445;52.490;13.378;2022-11-14T15:42:56;34.00;;;21.77;;
12762;SDS011;6445;52.490;13.378;2022-11-14T15:45:24;33.08;;;22.58;;
12762;SDS011;6445;52.490;13.378;2022-11-14T15:48:05;40.25;;;23.90;;
12762;SDS011;6445;52.490;13.378;2022-11-14T15:50:36;34.40;;;22.08;;
12762;SDS011;6445;52.490;13.378;2022-11-14T15:53:02;38.20;;;23.52;;
12762;SDS011;6445;52.490;13.378;2022-11-14T15:55:30;38.88;;;22.80;;
12762;SDS011;6445;52.490;13.378;2022-11-14T15:57:56;34.38;;;22.13;;